Terminal Aerodrome Forecast
Issued by NWS Cleveland, OH

Home | Current Version | Previous Version | Graphics & Text | Print | Product List | Glossary On
Versions: 1 2 3 4 5 6 7 8 9 10 11 12 13 14 15 16 17 18 19 20 21 22 23 24 25 26 27 28 29 30
089
FTUS41 KCLE 020533
TAFCLE
TAF
KCLE 020533Z 0206/0312 04010KT 3SM SHRA BR OVC007
      TEMPO 0206/0208 2SM -TSRA BR OVC004CB
     FM020800 04009KT 4SM BR VCSH OVC007
     FM021000 02009KT P6SM OVC005
     FM021700 02008KT P6SM OVC015
     FM030100 04005KT P6SM OVC035
     FM030900 VRB02KT P6SM OVC025=

USA.gov is the U.S. government's official web portal to all federal, state and local government web resources and services.